sensor_id;sensor_type;location;lat;lon;timestamp;P1;durP1;ratioP1;P2;durP2;ratioP2
43345;SDS011;28937;51.160;4.146;2023-03-03T00:00:38;22.50;;;16.30;;
43345;SDS011;28937;51.160;4.146;2023-03-03T00:03:05;21.52;;;14.95;;
43345;SDS011;28937;51.160;4.146;2023-03-03T00:05:32;22.08;;;15.05;;
43345;SDS011;28937;51.160;4.146;2023-03-03T00:07:59;21.73;;;16.42;;
43345;SDS011;28937;51.160;4.146;2023-03-03T00:10:25;23.02;;;15.88;;
43345;SDS011;28937;51.160;4.146;2023-03-03T00:12:51;21.40;;;16.67;;
43345;SDS011;28937;51.160;4.146;2023-03-03T00:15:17;20.40;;;15.73;;
43345;SDS011;28937;51.160;4.146;2023-03-03T00:17:46;23.75;;;16.05;;
43345;SDS011;28937;51.160;4.146;2023-03-03T00:25:50;24.50;;;15.15;;
43345;SDS011;28937;51.160;4.146;2023-03-03T00:28:31;19.63;;;15.75;;
43345;SDS011;28937;51.160;4.146;2023-03-03T00:31:05;20.00;;;15.70;;
43345;SDS011;28937;51.160;4.146;2023-03-03T00:33:59;20.85;;;16.38;;
43345;SDS011;28937;51.160;4.146;2023-03-03T00:36:47;21.77;;;16.00;;
43345;SDS011;28937;51.160;4.146;2023-03-03T00:39:37;22.85;;;17.45;;
43345;SDS011;28937;51.160;4.146;2023-03-03T00:42:13;24.65;;;17.33;;
43345;SDS011;28937;51.160;4.146;2023-03-03T00:44:56;22.30;;;16.23;;
43345;SDS011;28937;51.160;4.146;2023-03-03T00:47:24;24.23;;;16.60;;
43345;SDS011;28937;51.160;4.146;2023-03-03T00:49:50;25.65;;;17.23;;
43345;SDS011;28937;51.160;4.146;2023-03-03T00:52:17;22.55;;;17.13;;
43345;SDS011;28937;51.160;4.146;2023-03-03T00:54:43;22.92;;;17.23;;
43345;SDS011;28937;51.160;4.146;2023-03-03T00:57:09;22.33;;;16.92;;
43345;SDS011;28937;51.160;4.146;2023-03-03T00:59:36;22.40;;;17.02;;
43345;SDS011;28937;51.160;4.146;2023-03-03T01:02:03;22.95;;;16.58;;
43345;SDS011;28937;51.160;4.146;2023-03-03T01:04:29;22.92;;;16.83;;
43345;SDS011;28937;51.160;4.146;2023-03-03T01:06:54;21.13;;;16.25;;
43345;SDS011;28937;51.160;4.146;2023-03-03T01:09:20;24.73;;;16.83;;
43345;SDS011;28937;51.160;4.146;2023-03-03T01:11:46;23.50;;;17.38;;
43345;SDS011;28937;51.160;4.146;2023-03-03T01:14:12;25.23;;;17.42;;
43345;SDS011;28937;51.160;4.146;2023-03-03T01:16:37;21.67;;;16.05;;
43345;SDS011;28937;51.160;4.146;2023-03-03T01:19:05;22.35;;;16.33;;
43345;SDS011;28937;51.160;4.146;2023-03-03T01:21:31;21.25;;;16.52;;
43345;SDS011;28937;51.160;4.146;2023-03-03T01:23:57;22.35;;;16.83;;
43345;SDS011;28937;51.160;4.146;2023-03-03T01:26:22;25.90;;;17.55;;
43345;SDS011;28937;51.160;4.146;2023-03-03T01:28:48;24.70;;;17.73;;
43345;SDS011;28937;51.160;4.146;2023-03-03T01:31:14;23.67;;;17.55;;
43345;SDS011;28937;51.160;4.146;2023-03-03T01:33:39;23.55;;;18.23;;
43345;SDS011;28937;51.160;4.146;2023-03-03T01:36:05;21.67;;;17.33;;
43345;SDS011;28937;51.160;4.146;2023-03-03T01:38:33;26.90;;;18.40;;
43345;SDS011;28937;51.160;4.146;2023-03-03T01:41:00;25.98;;;19.75;;
43345;SDS011;28937;51.160;4.146;2023-03-03T01:43:30;21.73;;;17.13;;
43345;SDS011;28937;51.160;4.146;2023-03-03T01:48:24;23.85;;;17.83;;
43345;SDS011;28937;51.160;4.146;2023-03-03T01:51:00;24.42;;;18.27;;
43345;SDS011;28937;51.160;4.146;2023-03-03T01:53:29;23.00;;;18.73;;
43345;SDS011;28937;51.160;4.146;2023-03-03T01:56:06;24.20;;;18.98;;
43345;SDS011;28937;51.160;4.146;2023-03-03T01:58:34;27.63;;;19.35;;
43345;SDS011;28937;51.160;4.146;2023-03-03T02:01:10;26.00;;;20.33;;
43345;SDS011;28937;51.160;4.146;2023-03-03T02:03:39;26.20;;;18.80;;
43345;SDS011;28937;51.160;4.146;2023-03-03T02:06:08;24.60;;;19.77;;
43345;SDS011;28937;51.160;4.146;2023-03-03T02:08:59;23.80;;;18.45;;
43345;SDS011;28937;51.160;4.146;2023-03-03T02:11:35;24.98;;;19.48;;
43345;SDS011;28937;51.160;4.146;2023-03-03T02:14:03;26.85;;;20.63;;
43345;SDS011;28937;51.160;4.146;2023-03-03T02:16:28;25.73;;;19.85;;
43345;SDS011;28937;51.160;4.146;2023-03-03T02:18:54;26.77;;;20.13;;
43345;SDS011;28937;51.160;4.146;2023-03-03T02:21:20;26.42;;;19.30;;
43345;SDS011;28937;51.160;4.146;2023-03-03T02:26:29;26.38;;;19.80;;
43345;SDS011;28937;51.160;4.146;2023-03-03T02:28:58;27.98;;;20.67;;
43345;SDS011;28937;51.160;4.146;2023-03-03T02:31:25;27.48;;;20.20;;
43345;SDS011;28937;51.160;4.146;2023-03-03T02:33:52;28.45;;;21.40;;
43345;SDS011;28937;51.160;4.146;2023-03-03T02:36:20;28.15;;;21.35;;
43345;SDS011;28937;51.160;4.146;2023-03-03T02:39:02;28.02;;;22.08;;
43345;SDS011;28937;51.160;4.146;2023-03-03T02:44:21;27.20;;;20.42;;
43345;SDS011;28937;51.160;4.146;2023-03-03T02:46:49;26.17;;;21.43;;
43345;SDS011;28937;51.160;4.146;2023-03-03T02:49:17;30.05;;;22.40;;
43345;SDS011;28937;51.160;4.146;2023-03-03T02:51:45;27.13;;;21.42;;
43345;SDS011;28937;51.160;4.146;2023-03-03T02:54:11;28.08;;;20.85;;
43345;SDS011;28937;51.160;4.146;2023-03-03T02:56:38;26.17;;;20.38;;
43345;SDS011;28937;51.160;4.146;2023-03-03T02:59:04;26.73;;;20.83;;
43345;SDS011;28937;51.160;4.146;2023-03-03T03:01:30;26.70;;;20.60;;
43345;SDS011;28937;51.160;4.146;2023-03-03T03:04:01;26.77;;;21.08;;
43345;SDS011;28937;51.160;4.146;2023-03-03T03:06:29;29.17;;;21.00;;
43345;SDS011;28937;51.160;4.146;2023-03-03T03:08:55;26.23;;;21.42;;
43345;SDS011;28937;51.160;4.146;2023-03-03T03:11:20;28.40;;;21.17;;
43345;SDS011;28937;51.160;4.146;2023-03-03T03:13:46;28.25;;;21.85;;
43345;SDS011;28937;51.160;4.146;2023-03-03T03:16:12;27.58;;;21.95;;
43345;SDS011;28937;51.160;4.146;2023-03-03T03:18:37;28.13;;;21.55;;
43345;SDS011;28937;51.160;4.146;2023-03-03T03:21:06;25.60;;;21.17;;
43345;SDS011;28937;51.160;4.146;2023-03-03T03:23:34;25.10;;;20.38;;
43345;SDS011;28937;51.160;4.146;2023-03-03T03:26:00;24.23;;;18.98;;
43345;SDS011;28937;51.160;4.146;2023-03-03T03:28:25;22.88;;;18.38;;
43345;SDS011;28937;51.160;4.146;2023-03-03T03:30:51;23.15;;;18.13;;
43345;SDS011;28937;51.160;4.146;2023-03-03T03:33:16;23.13;;;18.13;;
43345;SDS011;28937;51.160;4.146;2023-03-03T03:35:42;22.35;;;16.70;;
43345;SDS011;28937;51.160;4.146;2023-03-03T03:38:11;22.88;;;17.65;;
43345;SDS011;28937;51.160;4.146;2023-03-03T03:40:37;19.38;;;15.27;;
43345;SDS011;28937;51.160;4.146;2023-03-03T03:43:03;24.08;;;17.33;;
43345;SDS011;28937;51.160;4.146;2023-03-03T03:45:29;20.77;;;14.80;;
43345;SDS011;28937;51.160;4.146;2023-03-03T03:47:54;17.92;;;14.52;;
43345;SDS011;28937;51.160;4.146;2023-03-03T03:50:20;17.17;;;13.95;;
43345;SDS011;28937;51.160;4.146;2023-03-03T03:52:46;17.98;;;13.15;;
43345;SDS011;28937;51.160;4.146;2023-03-03T03:55:11;16.40;;;13.48;;
43345;SDS011;28937;51.160;4.146;2023-03-03T03:57:37;18.02;;;13.15;;
43345;SDS011;28937;51.160;4.146;2023-03-03T04:00:06;17.13;;;13.38;;
43345;SDS011;28937;51.160;4.146;2023-03-03T04:02:33;16.02;;;11.73;;
43345;SDS011;28937;51.160;4.146;2023-03-03T04:04:59;17.08;;;12.68;;
43345;SDS011;28937;51.160;4.146;2023-03-03T04:07:25;15.25;;;11.27;;
43345;SDS011;28937;51.160;4.146;2023-03-03T04:09:50;19.70;;;12.75;;
43345;SDS011;28937;51.160;4.146;2023-03-03T04:12:16;12.57;;;10.02;;
43345;SDS011;28937;51.160;4.146;2023-03-03T04:14:42;14.57;;;11.10;;
43345;SDS011;28937;51.160;4.146;2023-03-03T04:17:08;12.75;;;11.18;;
43345;SDS011;28937;51.160;4.146;2023-03-03T04:19:48;12.27;;;10.60;;
43345;SDS011;28937;51.160;4.146;2023-03-03T04:22:16;14.05;;;11.13;;
43345;SDS011;28937;51.160;4.146;2023-03-03T04:24:41;13.52;;;11.30;;
43345;SDS011;28937;51.160;4.146;2023-03-03T04:27:07;16.20;;;11.00;;
43345;SDS011;28937;51.160;4.146;2023-03-03T04:29:33;15.18;;;10.98;;
43345;SDS011;28937;51.160;4.146;2023-03-03T04:31:59;14.02;;;11.23;;
43345;SDS011;28937;51.160;4.146;2023-03-03T04:34:24;14.55;;;10.63;;
43345;SDS011;28937;51.160;4.146;2023-03-03T04:36:50;13.85;;;11.15;;
43345;SDS011;28937;51.160;4.146;2023-03-03T04:39:16;12.10;;;10.27;;
43345;SDS011;28937;51.160;4.146;2023-03-03T04:41:42;14.57;;;10.93;;
43345;SDS011;28937;51.160;4.146;2023-03-03T04:44:07;15.93;;;11.02;;
43345;SDS011;28937;51.160;4.146;2023-03-03T04:46:33;15.73;;;11.07;;
43345;SDS011;28937;51.160;4.146;2023-03-03T04:48:58;15.95;;;10.50;;
43345;SDS011;28937;51.160;4.146;2023-03-03T04:51:24;13.50;;;10.63;;
43345;SDS011;28937;51.160;4.146;2023-03-03T04:53:49;14.45;;;11.20;;
43345;SDS011;28937;51.160;4.146;2023-03-03T04:56:15;14.40;;;11.30;;
43345;SDS011;28937;51.160;4.146;2023-03-03T04:58:41;16.05;;;12.63;;
43345;SDS011;28937;51.160;4.146;2023-03-03T05:01:06;17.25;;;11.82;;
43345;SDS011;28937;51.160;4.146;2023-03-03T05:03:36;22.17;;;15.13;;
43345;SDS011;28937;51.160;4.146;2023-03-03T05:06:01;24.20;;;17.83;;
43345;SDS011;28937;51.160;4.146;2023-03-03T05:08:27;24.45;;;18.25;;
43345;SDS011;28937;51.160;4.146;2023-03-03T05:10:53;26.92;;;21.15;;
43345;SDS011;28937;51.160;4.146;2023-03-03T05:13:19;31.58;;;23.15;;
43345;SDS011;28937;51.160;4.146;2023-03-03T05:15:48;43.08;;;31.90;;
43345;SDS011;28937;51.160;4.146;2023-03-03T05:18:15;46.65;;;34.05;;
43345;SDS011;28937;51.160;4.146;2023-03-03T05:20:42;50.75;;;35.17;;
43345;SDS011;28937;51.160;4.146;2023-03-03T05:23:08;55.53;;;38.85;;
43345;SDS011;28937;51.160;4.146;2023-03-03T05:25:33;45.22;;;33.20;;
43345;SDS011;28937;51.160;4.146;2023-03-03T05:27:59;40.03;;;31.65;;
43345;SDS011;28937;51.160;4.146;2023-03-03T05:30:24;42.80;;;31.52;;
43345;SDS011;28937;51.160;4.146;2023-03-03T05:32:50;38.10;;;30.10;;
43345;SDS011;28937;51.160;4.146;2023-03-03T05:35:16;41.05;;;31.20;;
43345;SDS011;28937;51.160;4.146;2023-03-03T05:37:41;44.35;;;32.85;;
43345;SDS011;28937;51.160;4.146;2023-03-03T05:40:11;41.85;;;33.03;;
43345;SDS011;28937;51.160;4.146;2023-03-03T05:42:38;40.97;;;30.85;;
43345;SDS011;28937;51.160;4.146;2023-03-03T05:45:04;39.58;;;29.35;;
43345;SDS011;28937;51.160;4.146;2023-03-03T05:47:30;46.08;;;33.03;;
43345;SDS011;28937;51.160;4.146;2023-03-03T05:49:55;48.10;;;33.85;;
43345;SDS011;28937;51.160;4.146;2023-03-03T05:52:21;48.72;;;35.25;;
43345;SDS011;28937;51.160;4.146;2023-03-03T05:54:48;51.47;;;35.33;;
43345;SDS011;28937;51.160;4.146;2023-03-03T05:57:14;48.15;;;35.42;;
43345;SDS011;28937;51.160;4.146;2023-03-03T05:59:40;48.78;;;35.08;;
43345;SDS011;28937;51.160;4.146;2023-03-03T06:02:06;50.78;;;36.63;;
43345;SDS011;28937;51.160;4.146;2023-03-03T06:04:31;41.28;;;30.15;;
43345;SDS011;28937;51.160;4.146;2023-03-03T06:06:57;36.72;;;28.20;;
43345;SDS011;28937;51.160;4.146;2023-03-03T06:09:23;40.35;;;29.33;;
43345;SDS011;28937;51.160;4.146;2023-03-03T06:11:50;37.85;;;29.15;;
43345;SDS011;28937;51.160;4.146;2023-03-03T06:14:17;39.40;;;28.40;;
43345;SDS011;28937;51.160;4.146;2023-03-03T06:16:45;31.05;;;24.70;;
43345;SDS011;28937;51.160;4.146;2023-03-03T06:19:11;34.40;;;25.10;;
43345;SDS011;28937;51.160;4.146;2023-03-03T06:21:36;35.45;;;26.02;;
43345;SDS011;28937;51.160;4.146;2023-03-03T06:24:02;34.65;;;22.95;;
43345;SDS011;28937;51.160;4.146;2023-03-03T06:26:28;39.72;;;29.48;;
43345;SDS011;28937;51.160;4.146;2023-03-03T06:28:54;40.47;;;30.10;;
43345;SDS011;28937;51.160;4.146;2023-03-03T06:31:20;41.55;;;29.30;;
43345;SDS011;28937;51.160;4.146;2023-03-03T06:33:46;41.97;;;31.27;;
43345;SDS011;28937;51.160;4.146;2023-03-03T06:36:11;47.53;;;33.08;;
43345;SDS011;28937;51.160;4.146;2023-03-03T06:38:37;40.83;;;31.05;;
43345;SDS011;28937;51.160;4.146;2023-03-03T06:41:03;41.75;;;30.27;;
43345;SDS011;28937;51.160;4.146;2023-03-03T06:43:31;38.10;;;28.70;;
43345;SDS011;28937;51.160;4.146;2023-03-03T06:45:57;42.90;;;31.00;;
43345;SDS011;28937;51.160;4.146;2023-03-03T06:48:23;43.70;;;31.13;;
43345;SDS011;28937;51.160;4.146;2023-03-03T06:50:49;48.17;;;33.28;;
43345;SDS011;28937;51.160;4.146;2023-03-03T06:53:16;42.97;;;32.03;;
43345;SDS011;28937;51.160;4.146;2023-03-03T06:55:43;41.53;;;28.25;;
43345;SDS011;28937;51.160;4.146;2023-03-03T06:58:16;38.58;;;27.17;;
43345;SDS011;28937;51.160;4.146;2023-03-03T07:00:44;35.83;;;24.73;;
43345;SDS011;28937;51.160;4.146;2023-03-03T07:03:17;34.97;;;24.85;;
43345;SDS011;28937;51.160;4.146;2023-03-03T07:05:47;35.97;;;25.27;;
43345;SDS011;28937;51.160;4.146;2023-03-03T07:08:14;35.53;;;23.95;;
43345;SDS011;28937;51.160;4.146;2023-03-03T07:10:42;31.42;;;22.92;;
43345;SDS011;28937;51.160;4.146;2023-03-03T07:15:42;22.83;;;17.35;;
43345;SDS011;28937;51.160;4.146;2023-03-03T07:18:25;25.10;;;18.42;;
43345;SDS011;28937;51.160;4.146;2023-03-03T07:20:57;23.15;;;16.88;;
43345;SDS011;28937;51.160;4.146;2023-03-03T07:23:24;22.60;;;16.85;;
43345;SDS011;28937;51.160;4.146;2023-03-03T07:25:59;24.70;;;18.02;;
43345;SDS011;28937;51.160;4.146;2023-03-03T07:28:25;21.10;;;16.20;;
43345;SDS011;28937;51.160;4.146;2023-03-03T07:30:53;20.77;;;14.57;;
43345;SDS011;28937;51.160;4.146;2023-03-03T07:33:28;21.20;;;15.52;;
43345;SDS011;28937;51.160;4.146;2023-03-03T07:35:58;23.83;;;16.27;;
43345;SDS011;28937;51.160;4.146;2023-03-03T07:41:15;23.83;;;17.08;;
43345;SDS011;28937;51.160;4.146;2023-03-03T07:46:33;25.33;;;17.80;;
43345;SDS011;28937;51.160;4.146;2023-03-03T07:49:19;25.80;;;18.17;;
43345;SDS011;28937;51.160;4.146;2023-03-03T07:51:48;29.42;;;22.25;;
43345;SDS011;28937;51.160;4.146;2023-03-03T07:57:40;23.13;;;18.55;;
43345;SDS011;28937;51.160;4.146;2023-03-03T07:59:45;26.70;;;19.85;;
43345;SDS011;28937;51.160;4.146;2023-03-03T08:04:57;27.95;;;20.20;;
43345;SDS011;28937;51.160;4.146;2023-03-03T08:07:22;31.40;;;20.77;;
43345;SDS011;28937;51.160;4.146;2023-03-03T08:09:49;27.88;;;19.52;;
43345;SDS011;28937;51.160;4.146;2023-03-03T08:17:40;31.10;;;22.27;;
43345;SDS011;28937;51.160;4.146;2023-03-03T08:20:28;40.28;;;28.30;;
43345;SDS011;28937;51.160;4.146;2023-03-03T08:22:53;39.53;;;27.38;;
43345;SDS011;28937;51.160;4.146;2023-03-03T08:25:19;37.42;;;27.98;;
43345;SDS011;28937;51.160;4.146;2023-03-03T08:27:45;40.05;;;27.83;;
43345;SDS011;28937;51.160;4.146;2023-03-03T08:30:11;39.03;;;26.83;;
43345;SDS011;28937;51.160;4.146;2023-03-03T08:32:36;35.10;;;25.58;;
43345;SDS011;28937;51.160;4.146;2023-03-03T08:35:02;32.65;;;24.08;;
43345;SDS011;28937;51.160;4.146;2023-03-03T08:37:28;33.97;;;23.90;;
43345;SDS011;28937;51.160;4.146;2023-03-03T08:39:53;37.88;;;27.63;;
43345;SDS011;28937;51.160;4.146;2023-03-03T08:42:19;46.40;;;31.58;;
43345;SDS011;28937;51.160;4.146;2023-03-03T08:44:44;51.67;;;37.15;;
43345;SDS011;28937;51.160;4.146;2023-03-03T08:47:10;50.35;;;37.17;;
43345;SDS011;28937;51.160;4.146;2023-03-03T08:49:35;50.20;;;36.78;;
43345;SDS011;28937;51.160;4.146;2023-03-03T08:52:01;41.45;;;29.83;;
43345;SDS011;28937;51.160;4.146;2023-03-03T08:54:27;46.92;;;32.15;;
43345;SDS011;28937;51.160;4.146;2023-03-03T08:56:53;43.30;;;30.90;;
43345;SDS011;28937;51.160;4.146;2023-03-03T08:59:18;39.95;;;29.02;;
43345;SDS011;28937;51.160;4.146;2023-03-03T09:01:44;35.78;;;26.38;;
43345;SDS011;28937;51.160;4.146;2023-03-03T09:04:10;37.58;;;28.75;;
43345;SDS011;28937;51.160;4.146;2023-03-03T09:06:35;39.70;;;28.83;;
43345;SDS011;28937;51.160;4.146;2023-03-03T09:09:01;39.60;;;29.52;;
43345;SDS011;28937;51.160;4.146;2023-03-03T09:11:28;39.75;;;30.08;;
43345;SDS011;28937;51.160;4.146;2023-03-03T09:13:58;43.28;;;32.53;;
43345;SDS011;28937;51.160;4.146;2023-03-03T09:16:40;46.78;;;33.20;;
43345;SDS011;28937;51.160;4.146;2023-03-03T09:21:45;35.85;;;26.27;;
43345;SDS011;28937;51.160;4.146;2023-03-03T09:24:23;37.17;;;27.33;;
43345;SDS011;28937;51.160;4.146;2023-03-03T09:26:49;37.28;;;27.45;;
43345;SDS011;28937;51.160;4.146;2023-03-03T09:29:26;40.75;;;27.75;;
43345;SDS011;28937;51.160;4.146;2023-03-03T09:31:55;36.50;;;27.33;;
43345;SDS011;28937;51.160;4.146;2023-03-03T09:34:27;34.60;;;25.33;;
43345;SDS011;28937;51.160;4.146;2023-03-03T09:39:51;34.05;;;25.75;;
43345;SDS011;28937;51.160;4.146;2023-03-03T09:42:40;34.38;;;25.92;;
43345;SDS011;28937;51.160;4.146;2023-03-03T09:45:22;29.85;;;23.45;;
43345;SDS011;28937;51.160;4.146;2023-03-03T09:48:40;33.33;;;26.00;;
43345;SDS011;28937;51.160;4.146;2023-03-03T09:56:43;28.05;;;21.45;;
43345;SDS011;28937;51.160;4.146;2023-03-03T10:04:33;28.80;;;21.00;;
43345;SDS011;28937;51.160;4.146;2023-03-03T10:12:14;30.45;;;23.08;;
43345;SDS011;28937;51.160;4.146;2023-03-03T10:31:36;32.58;;;23.95;;
43345;SDS011;28937;51.160;4.146;2023-03-03T10:39:31;31.73;;;23.98;;
43345;SDS011;28937;51.160;4.146;2023-03-03T10:44:50;32.13;;;22.60;;
43345;SDS011;28937;51.160;4.146;2023-03-03T11:06:54;28.15;;;22.10;;
43345;SDS011;28937;51.160;4.146;2023-03-03T11:14:44;21.77;;;19.00;;
43345;SDS011;28937;51.160;4.146;2023-03-03T11:17:24;21.48;;;17.05;;
43345;SDS011;28937;51.160;4.146;2023-03-03T11:20:03;21.65;;;16.52;;
43345;SDS011;28937;51.160;4.146;2023-03-03T11:22:58;25.20;;;19.10;;
43345;SDS011;28937;51.160;4.146;2023-03-03T11:37:12;25.00;;;19.83;;
43345;SDS011;28937;51.160;4.146;2023-03-03T11:39:47;20.17;;;16.45;;
43345;SDS011;28937;51.160;4.146;2023-03-03T11:44:58;24.92;;;20.58;;
43345;SDS011;28937;51.160;4.146;2023-03-03T11:55:43;22.20;;;16.77;;
43345;SDS011;28937;51.160;4.146;2023-03-03T11:58:21;20.73;;;14.95;;
43345;SDS011;28937;51.160;4.146;2023-03-03T12:11:38;21.85;;;17.73;;
43345;SDS011;28937;51.160;4.146;2023-03-03T12:16:58;20.40;;;16.13;;
43345;SDS011;28937;51.160;4.146;2023-03-03T12:30:19;20.80;;;17.17;;
43345;SDS011;28937;51.160;4.146;2023-03-03T12:33:21;23.80;;;18.33;;
43345;SDS011;28937;51.160;4.146;2023-03-03T12:43:54;23.27;;;19.95;;
43345;SDS011;28937;51.160;4.146;2023-03-03T12:46:32;26.73;;;19.85;;
43345;SDS011;28937;51.160;4.146;2023-03-03T12:49:10;26.95;;;20.02;;
43345;SDS011;28937;51.160;4.146;2023-03-03T12:57:15;20.45;;;16.73;;
43345;SDS011;28937;51.160;4.146;2023-03-03T13:02:44;21.90;;;18.08;;
43345;SDS011;28937;51.160;4.146;2023-03-03T13:10:28;16.48;;;14.10;;
43345;SDS011;28937;51.160;4.146;2023-03-03T13:12:58;16.50;;;13.45;;
43345;SDS011;28937;51.160;4.146;2023-03-03T13:15:43;18.02;;;13.73;;
43345;SDS011;28937;51.160;4.146;2023-03-03T13:21:02;20.42;;;14.15;;
43345;SDS011;28937;51.160;4.146;2023-03-03T13:23:53;18.75;;;13.50;;
43345;SDS011;28937;51.160;4.146;2023-03-03T13:26:42;17.10;;;12.88;;
43345;SDS011;28937;51.160;4.146;2023-03-03T13:29:22;17.23;;;13.20;;
43345;SDS011;28937;51.160;4.146;2023-03-03T13:37:55;19.83;;;10.63;;
43345;SDS011;28937;51.160;4.146;2023-03-03T13:40:17;14.98;;;11.63;;
43345;SDS011;28937;51.160;4.146;2023-03-03T13:42:49;13.93;;;10.40;;
43345;SDS011;28937;51.160;4.146;2023-03-03T13:45:49;13.45;;;9.95;;
43345;SDS011;28937;51.160;4.146;2023-03-03T13:51:03;16.23;;;9.77;;
43345;SDS011;28937;51.160;4.146;2023-03-03T14:05:33;13.45;;;9.80;;
43345;SDS011;28937;51.160;4.146;2023-03-03T14:13:34;11.18;;;7.85;;
43345;SDS011;28937;51.160;4.146;2023-03-03T14:16:20;12.25;;;6.75;;
43345;SDS011;28937;51.160;4.146;2023-03-03T14:19:01;7.95;;;6.47;;
43345;SDS011;28937;51.160;4.146;2023-03-03T14:24:20;13.00;;;7.40;;
43345;SDS011;28937;51.160;4.146;2023-03-03T14:26:53;10.45;;;6.53;;
43345;SDS011;28937;51.160;4.146;2023-03-03T14:31:52;10.93;;;6.90;;
43345;SDS011;28937;51.160;4.146;2023-03-03T14:36:47;9.35;;;6.35;;
43345;SDS011;28937;51.160;4.146;2023-03-03T14:41:57;9.43;;;6.38;;
43345;SDS011;28937;51.160;4.146;2023-03-03T14:49:35;11.77;;;6.20;;
43345;SDS011;28937;51.160;4.146;2023-03-03T14:54:42;7.07;;;5.35;;
43345;SDS011;28937;51.160;4.146;2023-03-03T14:57:17;7.10;;;5.07;;
43345;SDS011;28937;51.160;4.146;2023-03-03T15:00:00;6.80;;;4.78;;
43345;SDS011;28937;51.160;4.146;2023-03-03T15:05:27;7.85;;;5.10;;
43345;SDS011;28937;51.160;4.146;2023-03-03T15:07:57;8.60;;;5.03;;
43345;SDS011;28937;51.160;4.146;2023-03-03T15:10:37;7.32;;;4.60;;
43345;SDS011;28937;51.160;4.146;2023-03-03T15:13:09;6.55;;;4.80;;
43345;SDS011;28937;51.160;4.146;2023-03-03T15:18:23;7.00;;;4.75;;
43345;SDS011;28937;51.160;4.146;2023-03-03T15:42:13;6.57;;;3.45;;
43345;SDS011;28937;51.160;4.146;2023-03-03T15:44:45;6.05;;;3.45;;
43345;SDS011;28937;51.160;4.146;2023-03-03T15:47:36;6.03;;;4.30;;
43345;SDS011;28937;51.160;4.146;2023-03-03T15:53:19;5.28;;;3.80;;
43345;SDS011;28937;51.160;4.146;2023-03-03T15:56:24;6.38;;;3.92;;
43345;SDS011;28937;51.160;4.146;2023-03-03T16:10:46;8.65;;;3.83;;
43345;SDS011;28937;51.160;4.146;2023-03-03T16:22:32;7.53;;;4.60;;
43345;SDS011;28937;51.160;4.146;2023-03-03T16:27:49;8.73;;;4.60;;
43345;SDS011;28937;51.160;4.146;2023-03-03T16:33:20;6.13;;;3.55;;
43345;SDS011;28937;51.160;4.146;2023-03-03T16:38:42;5.90;;;4.32;;
43345;SDS011;28937;51.160;4.146;2023-03-03T16:41:43;6.28;;;4.13;;
43345;SDS011;28937;51.160;4.146;2023-03-03T16:47:35;7.07;;;3.30;;
43345;SDS011;28937;51.160;4.146;2023-03-03T16:53:00;5.93;;;2.75;;
43345;SDS011;28937;51.160;4.146;2023-03-03T16:55:52;8.57;;;2.53;;
43345;SDS011;28937;51.160;4.146;2023-03-03T17:01:24;4.13;;;2.67;;
43345;SDS011;28937;51.160;4.146;2023-03-03T17:04:07;3.67;;;2.10;;
43345;SDS011;28937;51.160;4.146;2023-03-03T17:06:54;4.07;;;2.45;;
43345;SDS011;28937;51.160;4.146;2023-03-03T17:15:13;6.80;;;2.55;;
43345;SDS011;28937;51.160;4.146;2023-03-03T17:45:14;6.00;;;3.85;;
43345;SDS011;28937;51.160;4.146;2023-03-03T18:02:03;5.55;;;3.35;;
43345;SDS011;28937;51.160;4.146;2023-03-03T18:10:11;4.85;;;3.50;;
43345;SDS011;28937;51.160;4.146;2023-03-03T18:21:57;6.28;;;4.13;;
43345;SDS011;28937;51.160;4.146;2023-03-03T18:24:33;5.40;;;3.85;;
43345;SDS011;28937;51.160;4.146;2023-03-03T18:40:51;7.80;;;4.78;;
43345;SDS011;28937;51.160;4.146;2023-03-03T18:46:09;8.25;;;4.55;;
43345;SDS011;28937;51.160;4.146;2023-03-03T18:54:21;8.75;;;4.82;;
43345;SDS011;28937;51.160;4.146;2023-03-03T19:04:52;7.95;;;4.65;;
43345;SDS011;28937;51.160;4.146;2023-03-03T19:15:41;7.15;;;4.47;;
43345;SDS011;28937;51.160;4.146;2023-03-03T19:18:18;7.80;;;4.93;;
43345;SDS011;28937;51.160;4.146;2023-03-03T19:20:47;8.30;;;4.88;;
43345;SDS011;28937;51.160;4.146;2023-03-03T19:23:30;6.53;;;4.45;;
43345;SDS011;28937;51.160;4.146;2023-03-03T19:34:53;7.63;;;6.53;;
43345;SDS011;28937;51.160;4.146;2023-03-03T19:37:44;9.82;;;6.53;;
43345;SDS011;28937;51.160;4.146;2023-03-03T19:42:53;8.90;;;8.02;;
43345;SDS011;28937;51.160;4.146;2023-03-03T19:45:47;9.55;;;8.23;;
43345;SDS011;28937;51.160;4.146;2023-03-03T19:48:50;9.65;;;7.90;;
43345;SDS011;28937;51.160;4.146;2023-03-03T19:56:47;9.25;;;8.35;;
43345;SDS011;28937;51.160;4.146;2023-03-03T20:07:19;11.13;;;9.40;;
43345;SDS011;28937;51.160;4.146;2023-03-03T20:09:51;11.75;;;10.48;;
43345;SDS011;28937;51.160;4.146;2023-03-03T20:21:04;10.60;;;9.13;;
43345;SDS011;28937;51.160;4.146;2023-03-03T20:28:59;13.45;;;9.98;;
43345;SDS011;28937;51.160;4.146;2023-03-03T20:40:07;12.77;;;11.38;;
43345;SDS011;28937;51.160;4.146;2023-03-03T20:45:33;14.45;;;11.10;;
43345;SDS011;28937;51.160;4.146;2023-03-03T20:51:20;14.93;;;10.52;;
43345;SDS011;28937;51.160;4.146;2023-03-03T20:54:23;12.68;;;9.68;;
43345;SDS011;28937;51.160;4.146;2023-03-03T20:56:53;13.98;;;9.70;;
43345;SDS011;28937;51.160;4.146;2023-03-03T20:59:50;12.15;;;8.52;;
43345;SDS011;28937;51.160;4.146;2023-03-03T21:02:27;14.75;;;8.65;;
43345;SDS011;28937;51.160;4.146;2023-03-03T21:05:14;12.20;;;7.95;;
43345;SDS011;28937;51.160;4.146;2023-03-03T21:07:51;9.35;;;5.82;;
43345;SDS011;28937;51.160;4.146;2023-03-03T21:10:25;13.05;;;5.40;;
43345;SDS011;28937;51.160;4.146;2023-03-03T21:13:20;6.32;;;4.80;;
43345;SDS011;28937;51.160;4.146;2023-03-03T21:16:01;7.30;;;4.70;;
43345;SDS011;28937;51.160;4.146;2023-03-03T21:18:29;10.73;;;4.85;;
43345;SDS011;28937;51.160;4.146;2023-03-03T21:20:56;7.88;;;3.92;;
43345;SDS011;28937;51.160;4.146;2023-03-03T21:23:21;14.65;;;4.07;;
43345;SDS011;28937;51.160;4.146;2023-03-03T21:25:50;10.35;;;3.92;;
43345;SDS011;28937;51.160;4.146;2023-03-03T21:39:19;10.37;;;4.43;;
43345;SDS011;28937;51.160;4.146;2023-03-03T21:41:57;12.90;;;5.00;;
43345;SDS011;28937;51.160;4.146;2023-03-03T21:44:31;14.07;;;4.20;;
43345;SDS011;28937;51.160;4.146;2023-03-03T21:46:59;11.57;;;4.88;;
43345;SDS011;28937;51.160;4.146;2023-03-03T21:49:25;9.48;;;4.85;;
43345;SDS011;28937;51.160;4.146;2023-03-03T21:51:51;9.98;;;5.10;;
43345;SDS011;28937;51.160;4.146;2023-03-03T21:54:17;15.57;;;5.43;;
43345;SDS011;28937;51.160;4.146;2023-03-03T21:56:42;10.70;;;6.18;;
43345;SDS011;28937;51.160;4.146;2023-03-03T21:59:08;11.52;;;5.57;;
43345;SDS011;28937;51.160;4.146;2023-03-03T22:01:34;11.55;;;5.47;;
43345;SDS011;28937;51.160;4.146;2023-03-03T22:04:00;9.10;;;5.55;;
43345;SDS011;28937;51.160;4.146;2023-03-03T22:06:26;11.68;;;4.90;;
43345;SDS011;28937;51.160;4.146;2023-03-03T22:08:52;14.65;;;4.82;;
43345;SDS011;28937;51.160;4.146;2023-03-03T22:11:18;12.90;;;4.60;;
43345;SDS011;28937;51.160;4.146;2023-03-03T22:13:43;16.83;;;5.28;;
43345;SDS011;28937;51.160;4.146;2023-03-03T22:16:09;14.50;;;5.65;;
43345;SDS011;28937;51.160;4.146;2023-03-03T22:18:36;12.32;;;4.95;;
43345;SDS011;28937;51.160;4.146;2023-03-03T22:21:02;15.98;;;5.18;;